sensor_id;sensor_type;location;lat;lon;timestamp;P1;durP1;ratioP1;P2;durP2;ratioP2
35290;SDS011;21411;50.024;19.220;2023-05-29T00:18:26;17.40;;;10.10;;
35290;SDS011;21411;50.024;19.220;2023-05-29T00:22:15;12.80;;;10.20;;
35290;SDS011;21411;50.024;19.220;2023-05-29T00:26:25;11.80;;;9.10;;
35290;SDS011;21411;50.024;19.220;2023-05-29T00:37:25;13.70;;;10.30;;
35290;SDS011;21411;50.024;19.220;2023-05-29T00:41:14;15.00;;;9.60;;
35290;SDS011;21411;50.024;19.220;2023-05-29T00:44:52;13.10;;;9.10;;
35290;SDS011;21411;50.024;19.220;2023-05-29T00:48:26;14.60;;;9.60;;
35290;SDS011;21411;50.024;19.220;2023-05-29T00:52:19;14.20;;;9.70;;
35290;SDS011;21411;50.024;19.220;2023-05-29T00:56:03;12.00;;;9.10;;
35290;SDS011;21411;50.024;19.220;2023-05-29T01:00:06;14.30;;;9.60;;
35290;SDS011;21411;50.024;19.220;2023-05-29T01:03:48;14.50;;;8.80;;
35290;SDS011;21411;50.024;19.220;2023-05-29T01:07:35;12.80;;;9.10;;
35290;SDS011;21411;50.024;19.220;2023-05-29T01:11:05;15.70;;;11.80;;
35290;SDS011;21411;50.024;19.220;2023-05-29T01:33:34;14.40;;;10.70;;
35290;SDS011;21411;50.024;19.220;2023-05-29T01:37:33;12.40;;;10.20;;
35290;SDS011;21411;50.024;19.220;2023-05-29T01:44:52;13.20;;;10.40;;
35290;SDS011;21411;50.024;19.220;2023-05-29T01:48:42;14.10;;;10.40;;
35290;SDS011;21411;50.024;19.220;2023-05-29T01:59:07;15.50;;;12.10;;
35290;SDS011;21411;50.024;19.220;2023-05-29T02:03:05;16.20;;;11.50;;
35290;SDS011;21411;50.024;19.220;2023-05-29T02:13:15;13.90;;;12.00;;
35290;SDS011;21411;50.024;19.220;2023-05-29T02:16:34;15.70;;;11.60;;
35290;SDS011;21411;50.024;19.220;2023-05-29T02:20:06;13.40;;;10.60;;
35290;SDS011;21411;50.024;19.220;2023-05-29T02:23:21;14.20;;;10.70;;
35290;SDS011;21411;50.024;19.220;2023-05-29T02:27:10;13.10;;;10.40;;
35290;SDS011;21411;50.024;19.220;2023-05-29T02:30:45;13.00;;;9.60;;
35290;SDS011;21411;50.024;19.220;2023-05-29T02:34:22;11.70;;;9.90;;
35290;SDS011;21411;50.024;19.220;2023-05-29T02:38:05;14.10;;;10.80;;
35290;SDS011;21411;50.024;19.220;2023-05-29T02:41:47;13.20;;;10.80;;
35290;SDS011;21411;50.024;19.220;2023-05-29T02:56:33;11.10;;;9.50;;
35290;SDS011;21411;50.024;19.220;2023-05-29T03:00:33;16.50;;;10.50;;
35290;SDS011;21411;50.024;19.220;2023-05-29T03:08:16;13.30;;;10.50;;
35290;SDS011;21411;50.024;19.220;2023-05-29T03:11:50;4.60;;;4.30;;
35290;SDS011;21411;50.024;19.220;2023-05-29T03:23:25;11.20;;;10.00;;
35290;SDS011;21411;50.024;19.220;2023-05-29T03:33:40;13.00;;;10.50;;
35290;SDS011;21411;50.024;19.220;2023-05-29T03:37:32;18.70;;;11.10;;
35290;SDS011;21411;50.024;19.220;2023-05-29T03:48:44;16.70;;;10.10;;
35290;SDS011;21411;50.024;19.220;2023-05-29T03:52:29;12.30;;;10.40;;
35290;SDS011;21411;50.024;19.220;2023-05-29T03:56:18;13.30;;;10.30;;
35290;SDS011;21411;50.024;19.220;2023-05-29T03:59:33;15.40;;;10.10;;
35290;SDS011;21411;50.024;19.220;2023-05-29T04:03:23;11.20;;;8.90;;
35290;SDS011;21411;50.024;19.220;2023-05-29T04:10:40;10.60;;;8.70;;
35290;SDS011;21411;50.024;19.220;2023-05-29T04:14:34;9.80;;;8.50;;
35290;SDS011;21411;50.024;19.220;2023-05-29T04:18:34;11.40;;;8.40;;
35290;SDS011;21411;50.024;19.220;2023-05-29T04:22:09;12.60;;;8.60;;
35290;SDS011;21411;50.024;19.220;2023-05-29T04:25:50;11.90;;;8.70;;
35290;SDS011;21411;50.024;19.220;2023-05-29T04:29:50;11.60;;;7.90;;
35290;SDS011;21411;50.024;19.220;2023-05-29T04:33:38;13.10;;;9.10;;
35290;SDS011;21411;50.024;19.220;2023-05-29T04:55:33;11.00;;;8.90;;
35290;SDS011;21411;50.024;19.220;2023-05-29T05:06:58;11.70;;;9.20;;
35290;SDS011;21411;50.024;19.220;2023-05-29T05:10:52;11.90;;;9.10;;
35290;SDS011;21411;50.024;19.220;2023-05-29T05:14:29;12.00;;;8.30;;
35290;SDS011;21411;50.024;19.220;2023-05-29T05:18:27;11.90;;;9.20;;
35290;SDS011;21411;50.024;19.220;2023-05-29T05:26:00;13.00;;;11.20;;
35290;SDS011;21411;50.024;19.220;2023-05-29T05:34:12;9.50;;;7.00;;
35290;SDS011;21411;50.024;19.220;2023-05-29T05:41:40;9.60;;;8.80;;
35290;SDS011;21411;50.024;19.220;2023-05-29T05:49:12;9.40;;;7.00;;
35290;SDS011;21411;50.024;19.220;2023-05-29T05:56:22;9.60;;;6.40;;
35290;SDS011;21411;50.024;19.220;2023-05-29T06:00:15;9.60;;;5.40;;
35290;SDS011;21411;50.024;19.220;2023-05-29T06:04:18;8.30;;;7.20;;
35290;SDS011;21411;50.024;19.220;2023-05-29T06:08:16;6.80;;;5.80;;
35290;SDS011;21411;50.024;19.220;2023-05-29T06:15:46;7.60;;;6.90;;
35290;SDS011;21411;50.024;19.220;2023-05-29T06:23:08;8.90;;;7.00;;
35290;SDS011;21411;50.024;19.220;2023-05-29T06:27:15;12.90;;;7.70;;
35290;SDS011;21411;50.024;19.220;2023-05-29T06:31:02;10.70;;;9.60;;
35290;SDS011;21411;50.024;19.220;2023-05-29T06:54:05;8.00;;;6.80;;
35290;SDS011;21411;50.024;19.220;2023-05-29T06:57:49;7.40;;;6.10;;
35290;SDS011;21411;50.024;19.220;2023-05-29T07:04:21;7.40;;;6.50;;
35290;SDS011;21411;50.024;19.220;2023-05-29T07:06:47;10.90;;;6.50;;
35290;SDS011;21411;50.024;19.220;2023-05-29T07:09:14;11.80;;;6.90;;
35290;SDS011;21411;50.024;19.220;2023-05-29T07:11:41;8.90;;;7.00;;
35290;SDS011;21411;50.024;19.220;2023-05-29T07:14:07;15.10;;;8.30;;
35290;SDS011;21411;50.024;19.220;2023-05-29T07:16:34;33.40;;;14.30;;
35290;SDS011;21411;50.024;19.220;2023-05-29T07:19:01;26.70;;;13.00;;
35290;SDS011;21411;50.024;19.220;2023-05-29T07:21:27;8.50;;;6.50;;
35290;SDS011;21411;50.024;19.220;2023-05-29T07:23:54;8.60;;;6.60;;
35290;SDS011;21411;50.024;19.220;2023-05-29T07:26:21;11.30;;;6.40;;
35290;SDS011;21411;50.024;19.220;2023-05-29T07:28:49;6.60;;;5.90;;
35290;SDS011;21411;50.024;19.220;2023-05-29T07:31:16;9.30;;;7.20;;
35290;SDS011;21411;50.024;19.220;2023-05-29T07:33:42;6.90;;;6.20;;
35290;SDS011;21411;50.024;19.220;2023-05-29T07:36:09;8.80;;;6.40;;
35290;SDS011;21411;50.024;19.220;2023-05-29T07:38:36;10.40;;;6.60;;
35290;SDS011;21411;50.024;19.220;2023-05-29T07:41:02;6.80;;;6.10;;
35290;SDS011;21411;50.024;19.220;2023-05-29T07:43:29;9.80;;;7.10;;
35290;SDS011;21411;50.024;19.220;2023-05-29T07:45:55;12.50;;;6.50;;
35290;SDS011;21411;50.024;19.220;2023-05-29T07:48:22;8.00;;;6.70;;
35290;SDS011;21411;50.024;19.220;2023-05-29T07:50:49;8.80;;;6.50;;
35290;SDS011;21411;50.024;19.220;2023-05-29T07:53:15;8.00;;;5.40;;
35290;SDS011;21411;50.024;19.220;2023-05-29T07:55:42;7.70;;;5.90;;
35290;SDS011;21411;50.024;19.220;2023-05-29T07:58:08;10.50;;;6.00;;
35290;SDS011;21411;50.024;19.220;2023-05-29T08:00:37;7.70;;;5.80;;
35290;SDS011;21411;50.024;19.220;2023-05-29T08:03:05;7.20;;;4.90;;
35290;SDS011;21411;50.024;19.220;2023-05-29T08:05:31;8.40;;;5.60;;
35290;SDS011;21411;50.024;19.220;2023-05-29T08:07:58;11.20;;;6.00;;
35290;SDS011;21411;50.024;19.220;2023-05-29T08:13:49;9.70;;;6.70;;
35290;SDS011;21411;50.024;19.220;2023-05-29T08:16:16;7.50;;;6.10;;
35290;SDS011;21411;50.024;19.220;2023-05-29T08:18:43;10.70;;;6.50;;
35290;SDS011;21411;50.024;19.220;2023-05-29T08:21:09;10.60;;;5.90;;
35290;SDS011;21411;50.024;19.220;2023-05-29T08:23:36;7.20;;;5.40;;
35290;SDS011;21411;50.024;19.220;2023-05-29T08:26:04;8.80;;;5.40;;
35290;SDS011;21411;50.024;19.220;2023-05-29T08:28:31;9.00;;;6.00;;
35290;SDS011;21411;50.024;19.220;2023-05-29T08:30:57;7.30;;;5.70;;
35290;SDS011;21411;50.024;19.220;2023-05-29T08:33:24;7.50;;;5.90;;
35290;SDS011;21411;50.024;19.220;2023-05-29T08:35:51;9.10;;;5.80;;
35290;SDS011;21411;50.024;19.220;2023-05-29T08:38:17;6.30;;;5.30;;
35290;SDS011;21411;50.024;19.220;2023-05-29T08:40:44;11.80;;;5.90;;
35290;SDS011;21411;50.024;19.220;2023-05-29T08:45:47;7.70;;;5.30;;
35290;SDS011;21411;50.024;19.220;2023-05-29T08:48:21;7.50;;;5.10;;
35290;SDS011;21411;50.024;19.220;2023-05-29T08:50:50;6.90;;;5.20;;
35290;SDS011;21411;50.024;19.220;2023-05-29T08:55:48;5.80;;;4.60;;
35290;SDS011;21411;50.024;19.220;2023-05-29T08:58:20;6.60;;;4.90;;
35290;SDS011;21411;50.024;19.220;2023-05-29T09:00:48;11.20;;;4.30;;
35290;SDS011;21411;50.024;19.220;2023-05-29T09:03:16;7.40;;;4.20;;
35290;SDS011;21411;50.024;19.220;2023-05-29T09:05:44;6.20;;;4.00;;
35290;SDS011;21411;50.024;19.220;2023-05-29T09:08:11;7.90;;;4.30;;
35290;SDS011;21411;50.024;19.220;2023-05-29T09:10:43;6.80;;;4.20;;
35290;SDS011;21411;50.024;19.220;2023-05-29T09:13:11;7.10;;;5.50;;
35290;SDS011;21411;50.024;19.220;2023-05-29T09:15:39;6.00;;;4.00;;
35290;SDS011;21411;50.024;19.220;2023-05-29T09:20:36;7.30;;;4.80;;
35290;SDS011;21411;50.024;19.220;2023-05-29T09:23:04;7.10;;;4.80;;
35290;SDS011;21411;50.024;19.220;2023-05-29T09:25:32;7.70;;;3.50;;
35290;SDS011;21411;50.024;19.220;2023-05-29T09:28:04;4.40;;;3.50;;
35290;SDS011;21411;50.024;19.220;2023-05-29T09:30:40;5.50;;;3.30;;
35290;SDS011;21411;50.024;19.220;2023-05-29T09:33:11;5.20;;;4.00;;
35290;SDS011;21411;50.024;19.220;2023-05-29T09:35:42;10.70;;;4.40;;
35290;SDS011;21411;50.024;19.220;2023-05-29T09:38:12;7.10;;;4.50;;
35290;SDS011;21411;50.024;19.220;2023-05-29T09:40:40;5.50;;;4.10;;
35290;SDS011;21411;50.024;19.220;2023-05-29T09:43:17;5.50;;;4.30;;
35290;SDS011;21411;50.024;19.220;2023-05-29T09:45:49;9.70;;;4.00;;
35290;SDS011;21411;50.024;19.220;2023-05-29T09:48:17;5.40;;;4.00;;
35290;SDS011;21411;50.024;19.220;2023-05-29T09:50:45;8.80;;;4.00;;
35290;SDS011;21411;50.024;19.220;2023-05-29T09:53:18;3.30;;;2.70;;
35290;SDS011;21411;50.024;19.220;2023-05-29T09:55:51;6.10;;;2.80;;
35290;SDS011;21411;50.024;19.220;2023-05-29T09:58:19;5.20;;;3.20;;
35290;SDS011;21411;50.024;19.220;2023-05-29T10:00:46;4.90;;;3.00;;
35290;SDS011;21411;50.024;19.220;2023-05-29T10:03:13;5.50;;;3.30;;
35290;SDS011;21411;50.024;19.220;2023-05-29T10:05:41;7.50;;;3.30;;
35290;SDS011;21411;50.024;19.220;2023-05-29T10:08:12;5.60;;;3.20;;
35290;SDS011;21411;50.024;19.220;2023-05-29T10:10:42;6.40;;;3.80;;
35290;SDS011;21411;50.024;19.220;2023-05-29T10:13:13;7.30;;;3.70;;
35290;SDS011;21411;50.024;19.220;2023-05-29T10:15:41;6.70;;;3.60;;
35290;SDS011;21411;50.024;19.220;2023-05-29T10:18:16;6.40;;;3.70;;
35290;SDS011;21411;50.024;19.220;2023-05-29T10:20:50;5.40;;;3.70;;
35290;SDS011;21411;50.024;19.220;2023-05-29T10:23:22;3.70;;;3.20;;
35290;SDS011;21411;50.024;19.220;2023-05-29T10:25:53;6.20;;;3.70;;
35290;SDS011;21411;50.024;19.220;2023-05-29T10:28:28;4.60;;;3.40;;
35290;SDS011;21411;50.024;19.220;2023-05-29T10:30:57;8.30;;;4.30;;
35290;SDS011;21411;50.024;19.220;2023-05-29T10:36:25;5.20;;;3.90;;
35290;SDS011;21411;50.024;19.220;2023-05-29T10:38:58;5.00;;;2.90;;
35290;SDS011;21411;50.024;19.220;2023-05-29T10:49:19;5.30;;;3.10;;
35290;SDS011;21411;50.024;19.220;2023-05-29T10:51:47;4.50;;;3.30;;
35290;SDS011;21411;50.024;19.220;2023-05-29T10:54:14;4.40;;;4.00;;
35290;SDS011;21411;50.024;19.220;2023-05-29T10:56:43;6.90;;;3.90;;
35290;SDS011;21411;50.024;19.220;2023-05-29T10:59:17;6.80;;;3.70;;
35290;SDS011;21411;50.024;19.220;2023-05-29T11:01:44;6.60;;;3.70;;
35290;SDS011;21411;50.024;19.220;2023-05-29T11:06:44;6.10;;;3.90;;
35290;SDS011;21411;50.024;19.220;2023-05-29T11:14:48;6.80;;;3.50;;
35290;SDS011;21411;50.024;19.220;2023-05-29T11:20:01;3.80;;;3.20;;
35290;SDS011;21411;50.024;19.220;2023-05-29T11:22:34;6.40;;;4.00;;
35290;SDS011;21411;50.024;19.220;2023-05-29T11:25:13;6.10;;;4.40;;
35290;SDS011;21411;50.024;19.220;2023-05-29T11:27:43;5.30;;;3.80;;
35290;SDS011;21411;50.024;19.220;2023-05-29T11:30:10;7.50;;;4.10;;
35290;SDS011;21411;50.024;19.220;2023-05-29T11:32:38;7.20;;;3.50;;
35290;SDS011;21411;50.024;19.220;2023-05-29T11:35:09;5.70;;;4.40;;
35290;SDS011;21411;50.024;19.220;2023-05-29T11:37:40;7.50;;;3.60;;
35290;SDS011;21411;50.024;19.220;2023-05-29T11:40:12;6.40;;;3.40;;
35290;SDS011;21411;50.024;19.220;2023-05-29T11:42:43;6.00;;;3.90;;
35290;SDS011;21411;50.024;19.220;2023-05-29T11:45:14;5.60;;;3.90;;
35290;SDS011;21411;50.024;19.220;2023-05-29T11:47:53;9.30;;;3.60;;
35290;SDS011;21411;50.024;19.220;2023-05-29T11:50:25;6.60;;;4.20;;
35290;SDS011;21411;50.024;19.220;2023-05-29T11:52:56;5.30;;;3.90;;
35290;SDS011;21411;50.024;19.220;2023-05-29T11:55:25;6.70;;;3.70;;
35290;SDS011;21411;50.024;19.220;2023-05-29T11:57:56;4.70;;;3.60;;
35290;SDS011;21411;50.024;19.220;2023-05-29T12:00:25;4.50;;;3.60;;
35290;SDS011;21411;50.024;19.220;2023-05-29T12:02:57;5.80;;;4.10;;
35290;SDS011;21411;50.024;19.220;2023-05-29T12:05:24;5.30;;;3.30;;
35290;SDS011;21411;50.024;19.220;2023-05-29T12:07:52;4.30;;;3.80;;
35290;SDS011;21411;50.024;19.220;2023-05-29T12:10:20;5.10;;;3.80;;
35290;SDS011;21411;50.024;19.220;2023-05-29T12:12:54;5.90;;;3.60;;
35290;SDS011;21411;50.024;19.220;2023-05-29T12:15:22;8.40;;;3.90;;
35290;SDS011;21411;50.024;19.220;2023-05-29T12:17:49;5.20;;;3.60;;
35290;SDS011;21411;50.024;19.220;2023-05-29T12:20:17;11.20;;;4.10;;
35290;SDS011;21411;50.024;19.220;2023-05-29T12:22:45;9.10;;;3.70;;
35290;SDS011;21411;50.024;19.220;2023-05-29T12:25:13;3.40;;;3.00;;
35290;SDS011;21411;50.024;19.220;2023-05-29T12:27:43;6.70;;;4.00;;
35290;SDS011;21411;50.024;19.220;2023-05-29T12:30:13;4.80;;;3.90;;
35290;SDS011;21411;50.024;19.220;2023-05-29T12:32:42;5.80;;;3.60;;
35290;SDS011;21411;50.024;19.220;2023-05-29T12:40:18;4.30;;;3.90;;
35290;SDS011;21411;50.024;19.220;2023-05-29T12:42:47;4.60;;;3.80;;
35290;SDS011;21411;50.024;19.220;2023-05-29T12:45:15;4.50;;;3.40;;
35290;SDS011;21411;50.024;19.220;2023-05-29T12:47:44;5.70;;;3.90;;
35290;SDS011;21411;50.024;19.220;2023-05-29T12:50:25;7.20;;;4.20;;
35290;SDS011;21411;50.024;19.220;2023-05-29T12:55:31;4.50;;;4.10;;
35290;SDS011;21411;50.024;19.220;2023-05-29T12:58:03;4.90;;;3.30;;
35290;SDS011;21411;50.024;19.220;2023-05-29T13:00:34;4.00;;;3.50;;
35290;SDS011;21411;50.024;19.220;2023-05-29T13:03:02;6.60;;;3.70;;
35290;SDS011;21411;50.024;19.220;2023-05-29T13:05:43;4.80;;;3.90;;
35290;SDS011;21411;50.024;19.220;2023-05-29T13:08:10;5.90;;;3.70;;
35290;SDS011;21411;50.024;19.220;2023-05-29T13:10:37;5.70;;;3.90;;
35290;SDS011;21411;50.024;19.220;2023-05-29T13:13:03;4.60;;;3.70;;
35290;SDS011;21411;50.024;19.220;2023-05-29T13:15:30;5.70;;;3.60;;
35290;SDS011;21411;50.024;19.220;2023-05-29T13:17:59;4.40;;;4.00;;
35290;SDS011;21411;50.024;19.220;2023-05-29T13:20:25;4.40;;;4.00;;
35290;SDS011;21411;50.024;19.220;2023-05-29T13:22:52;6.40;;;4.00;;
35290;SDS011;21411;50.024;19.220;2023-05-29T13:25:20;5.40;;;3.70;;
35290;SDS011;21411;50.024;19.220;2023-05-29T13:27:48;5.40;;;3.60;;
35290;SDS011;21411;50.024;19.220;2023-05-29T13:30:15;6.10;;;4.60;;
35290;SDS011;21411;50.024;19.220;2023-05-29T13:32:42;4.60;;;3.60;;
35290;SDS011;21411;50.024;19.220;2023-05-29T13:35:09;6.80;;;3.80;;
35290;SDS011;21411;50.024;19.220;2023-05-29T13:37:36;8.30;;;3.80;;
35290;SDS011;21411;50.024;19.220;2023-05-29T13:40:04;6.40;;;4.10;;
35290;SDS011;21411;50.024;19.220;2023-05-29T13:42:31;7.10;;;4.10;;
35290;SDS011;21411;50.024;19.220;2023-05-29T13:44:58;5.30;;;3.90;;
35290;SDS011;21411;50.024;19.220;2023-05-29T13:47:25;7.40;;;5.30;;
35290;SDS011;21411;50.024;19.220;2023-05-29T13:49:55;4.60;;;4.20;;
35290;SDS011;21411;50.024;19.220;2023-05-29T13:52:21;4.60;;;4.10;;
35290;SDS011;21411;50.024;19.220;2023-05-29T13:54:48;5.50;;;3.50;;
35290;SDS011;21411;50.024;19.220;2023-05-29T13:57:14;6.20;;;3.90;;
35290;SDS011;21411;50.024;19.220;2023-05-29T13:59:41;6.40;;;4.40;;
35290;SDS011;21411;50.024;19.220;2023-05-29T14:02:08;4.60;;;3.90;;
35290;SDS011;21411;50.024;19.220;2023-05-29T14:04:34;5.70;;;4.00;;
35290;SDS011;21411;50.024;19.220;2023-05-29T14:07:01;5.50;;;4.30;;
35290;SDS011;21411;50.024;19.220;2023-05-29T14:09:28;6.60;;;4.10;;
35290;SDS011;21411;50.024;19.220;2023-05-29T14:11:59;4.70;;;3.60;;
35290;SDS011;21411;50.024;19.220;2023-05-29T14:14:26;4.20;;;3.80;;
35290;SDS011;21411;50.024;19.220;2023-05-29T14:16:53;6.70;;;4.30;;
35290;SDS011;21411;50.024;19.220;2023-05-29T14:19:23;5.40;;;4.50;;
35290;SDS011;21411;50.024;19.220;2023-05-29T14:24:17;6.30;;;3.90;;
35290;SDS011;21411;50.024;19.220;2023-05-29T14:26:45;5.80;;;4.10;;
35290;SDS011;21411;50.024;19.220;2023-05-29T14:29:13;7.10;;;4.50;;
35290;SDS011;21411;50.024;19.220;2023-05-29T14:31:41;5.80;;;4.20;;
35290;SDS011;21411;50.024;19.220;2023-05-29T14:34:08;6.50;;;4.50;;
35290;SDS011;21411;50.024;19.220;2023-05-29T14:36:35;5.00;;;4.20;;
35290;SDS011;21411;50.024;19.220;2023-05-29T14:39:03;9.00;;;4.60;;
35290;SDS011;21411;50.024;19.220;2023-05-29T14:41:30;5.20;;;4.40;;
35290;SDS011;21411;50.024;19.220;2023-05-29T14:43:58;8.50;;;4.70;;
35290;SDS011;21411;50.024;19.220;2023-05-29T14:46:25;6.80;;;4.10;;
35290;SDS011;21411;50.024;19.220;2023-05-29T14:48:52;6.70;;;4.20;;
35290;SDS011;21411;50.024;19.220;2023-05-29T14:51:20;7.40;;;4.30;;
35290;SDS011;21411;50.024;19.220;2023-05-29T14:53:47;7.60;;;5.00;;
35290;SDS011;21411;50.024;19.220;2023-05-29T14:56:13;6.70;;;4.20;;
35290;SDS011;21411;50.024;19.220;2023-05-29T14:58:40;8.60;;;5.00;;
35290;SDS011;21411;50.024;19.220;2023-05-29T15:01:07;9.60;;;5.20;;
35290;SDS011;21411;50.024;19.220;2023-05-29T15:03:34;5.40;;;4.50;;
35290;SDS011;21411;50.024;19.220;2023-05-29T15:06:02;6.90;;;5.10;;
35290;SDS011;21411;50.024;19.220;2023-05-29T15:08:29;7.70;;;5.20;;
35290;SDS011;21411;50.024;19.220;2023-05-29T15:11:00;8.00;;;4.70;;
35290;SDS011;21411;50.024;19.220;2023-05-29T15:13:29;8.50;;;4.70;;
35290;SDS011;21411;50.024;19.220;2023-05-29T15:15:56;6.50;;;4.60;;
35290;SDS011;21411;50.024;19.220;2023-05-29T15:18:26;9.90;;;5.70;;
35290;SDS011;21411;50.024;19.220;2023-05-29T15:20:53;13.20;;;6.00;;
35290;SDS011;21411;50.024;19.220;2023-05-29T15:23:20;7.50;;;5.10;;
35290;SDS011;21411;50.024;19.220;2023-05-29T15:25:49;9.60;;;5.20;;
35290;SDS011;21411;50.024;19.220;2023-05-29T15:28:16;10.70;;;5.60;;
35290;SDS011;21411;50.024;19.220;2023-05-29T15:30:44;8.30;;;5.70;;
35290;SDS011;21411;50.024;19.220;2023-05-29T15:33:11;8.10;;;5.40;;
35290;SDS011;21411;50.024;19.220;2023-05-29T15:35:38;6.00;;;5.30;;
35290;SDS011;21411;50.024;19.220;2023-05-29T15:38:06;8.40;;;5.40;;
35290;SDS011;21411;50.024;19.220;2023-05-29T15:40:33;11.40;;;5.60;;
35290;SDS011;21411;50.024;19.220;2023-05-29T15:43:00;8.90;;;5.30;;
35290;SDS011;21411;50.024;19.220;2023-05-29T15:45:27;7.00;;;5.20;;
35290;SDS011;21411;50.024;19.220;2023-05-29T15:47:54;7.70;;;5.40;;
35290;SDS011;21411;50.024;19.220;2023-05-29T15:50:21;6.50;;;5.30;;
35290;SDS011;21411;50.024;19.220;2023-05-29T15:52:48;8.90;;;5.60;;
35290;SDS011;21411;50.024;19.220;2023-05-29T15:55:15;8.40;;;5.80;;
35290;SDS011;21411;50.024;19.220;2023-05-29T15:57:43;6.50;;;4.90;;
35290;SDS011;21411;50.024;19.220;2023-05-29T16:00:10;5.60;;;5.10;;
35290;SDS011;21411;50.024;19.220;2023-05-29T16:02:38;8.40;;;5.00;;
35290;SDS011;21411;50.024;19.220;2023-05-29T16:05:06;6.70;;;5.10;;
35290;SDS011;21411;50.024;19.220;2023-05-29T16:07:34;8.00;;;4.90;;
35290;SDS011;21411;50.024;19.220;2023-05-29T16:10:01;7.00;;;4.90;;
35290;SDS011;21411;50.024;19.220;2023-05-29T16:12:28;7.20;;;5.10;;
35290;SDS011;21411;50.024;19.220;2023-05-29T16:14:57;7.40;;;5.00;;
35290;SDS011;21411;50.024;19.220;2023-05-29T16:17:25;7.90;;;5.10;;
35290;SDS011;21411;50.024;19.220;2023-05-29T16:19:53;8.20;;;4.90;;
35290;SDS011;21411;50.024;19.220;2023-05-29T16:22:22;8.00;;;4.70;;
35290;SDS011;21411;50.024;19.220;2023-05-29T16:24:49;7.50;;;4.90;;
35290;SDS011;21411;50.024;19.220;2023-05-29T16:27:17;10.00;;;4.70;;
35290;SDS011;21411;50.024;19.220;2023-05-29T16:29:44;7.50;;;4.60;;
35290;SDS011;21411;50.024;19.220;2023-05-29T16:32:11;9.20;;;5.40;;
35290;SDS011;21411;50.024;19.220;2023-05-29T16:34:38;7.10;;;4.70;;
35290;SDS011;21411;50.024;19.220;2023-05-29T16:37:06;6.70;;;5.20;;
35290;SDS011;21411;50.024;19.220;2023-05-29T16:39:35;8.10;;;4.50;;
35290;SDS011;21411;50.024;19.220;2023-05-29T16:42:03;6.90;;;4.40;;
35290;SDS011;21411;50.024;19.220;2023-05-29T16:44:31;8.00;;;4.60;;
35290;SDS011;21411;50.024;19.220;2023-05-29T16:46:58;8.70;;;4.90;;
35290;SDS011;21411;50.024;19.220;2023-05-29T16:49:26;6.60;;;5.10;;
35290;SDS011;21411;50.024;19.220;2023-05-29T16:51:53;7.60;;;4.90;;
35290;SDS011;21411;50.024;19.220;2023-05-29T16:54:19;6.70;;;4.80;;
35290;SDS011;21411;50.024;19.220;2023-05-29T16:56:46;8.20;;;5.40;;
35290;SDS011;21411;50.024;19.220;2023-05-29T16:59:13;7.40;;;5.00;;
35290;SDS011;21411;50.024;19.220;2023-05-29T17:01:40;6.10;;;4.70;;
35290;SDS011;21411;50.024;19.220;2023-05-29T17:04:06;7.50;;;4.60;;
35290;SDS011;21411;50.024;19.220;2023-05-29T17:06:35;5.80;;;4.80;;
35290;SDS011;21411;50.024;19.220;2023-05-29T17:09:03;7.60;;;4.20;;
35290;SDS011;21411;50.024;19.220;2023-05-29T17:11:30;8.40;;;5.30;;
35290;SDS011;21411;50.024;19.220;2023-05-29T17:13:57;8.90;;;4.80;;
35290;SDS011;21411;50.024;19.220;2023-05-29T17:16:23;7.30;;;4.70;;
35290;SDS011;21411;50.024;19.220;2023-05-29T17:18:50;9.70;;;4.70;;
35290;SDS011;21411;50.024;19.220;2023-05-29T17:21:17;7.10;;;5.20;;
35290;SDS011;21411;50.024;19.220;2023-05-29T17:23:43;7.10;;;4.80;;
35290;SDS011;21411;50.024;19.220;2023-05-29T17:26:10;8.70;;;4.60;;
35290;SDS011;21411;50.024;19.220;2023-05-29T17:28:38;5.00;;;4.40;;
35290;SDS011;21411;50.024;19.220;2023-05-29T17:31:04;7.30;;;4.70;;
35290;SDS011;21411;50.024;19.220;2023-05-29T17:33:31;5.20;;;4.70;;
35290;SDS011;21411;50.024;19.220;2023-05-29T17:35:58;9.60;;;4.50;;
35290;SDS011;21411;50.024;19.220;2023-05-29T17:38:24;6.10;;;4.80;;
35290;SDS011;21411;50.024;19.220;2023-05-29T17:40:51;8.80;;;4.60;;
35290;SDS011;21411;50.024;19.220;2023-05-29T17:43:18;6.50;;;5.00;;
35290;SDS011;21411;50.024;19.220;2023-05-29T17:45:44;6.60;;;5.10;;
35290;SDS011;21411;50.024;19.220;2023-05-29T17:48:12;8.70;;;4.90;;
35290;SDS011;21411;50.024;19.220;2023-05-29T17:50:39;6.00;;;4.70;;
35290;SDS011;21411;50.024;19.220;2023-05-29T17:53:06;8.40;;;5.20;;
35290;SDS011;21411;50.024;19.220;2023-05-29T17:55:32;7.60;;;5.10;;
35290;SDS011;21411;50.024;19.220;2023-05-29T17:57:59;8.40;;;5.50;;
35290;SDS011;21411;50.024;19.220;2023-05-29T18:00:26;6.40;;;4.80;;
35290;SDS011;21411;50.024;19.220;2023-05-29T18:02:53;5.90;;;5.00;;
35290;SDS011;21411;50.024;19.220;2023-05-29T18:05:19;11.40;;;5.40;;
35290;SDS011;21411;50.024;19.220;2023-05-29T18:07:46;8.00;;;5.00;;
35290;SDS011;21411;50.024;19.220;2023-05-29T18:10:13;8.60;;;6.00;;
35290;SDS011;21411;50.024;19.220;2023-05-29T18:12:46;8.70;;;5.90;;
35290;SDS011;21411;50.024;19.220;2023-05-29T18:15:13;7.90;;;6.20;;
35290;SDS011;21411;50.024;19.220;2023-05-29T18:17:40;9.80;;;6.40;;
35290;SDS011;21411;50.024;19.220;2023-05-29T18:20:07;8.60;;;6.50;;
35290;SDS011;21411;50.024;19.220;2023-05-29T18:22:34;8.70;;;6.80;;
35290;SDS011;21411;50.024;19.220;2023-05-29T18:25:01;9.60;;;6.90;;
35290;SDS011;21411;50.024;19.220;2023-05-29T18:29:58;13.60;;;10.00;;
35290;SDS011;21411;50.024;19.220;2023-05-29T18:32:31;16.00;;;9.90;;
35290;SDS011;21411;50.024;19.220;2023-05-29T18:35:00;14.90;;;10.20;;
35290;SDS011;21411;50.024;19.220;2023-05-29T18:37:27;13.50;;;8.40;;
35290;SDS011;21411;50.024;19.220;2023-05-29T18:39:54;14.00;;;8.40;;
35290;SDS011;21411;50.024;19.220;2023-05-29T18:42:21;13.80;;;8.50;;
35290;SDS011;21411;50.024;19.220;2023-05-29T18:44:48;11.40;;;8.40;;
35290;SDS011;21411;50.024;19.220;2023-05-29T18:47:14;12.80;;;8.70;;
35290;SDS011;21411;50.024;19.220;2023-05-29T18:49:44;10.90;;;8.20;;
35290;SDS011;21411;50.024;19.220;2023-05-29T18:52:11;15.80;;;9.40;;
35290;SDS011;21411;50.024;19.220;2023-05-29T18:54:37;14.80;;;8.90;;
35290;SDS011;21411;50.024;19.220;2023-05-29T18:57:04;15.70;;;9.80;;
35290;SDS011;21411;50.024;19.220;2023-05-29T18:59:33;14.50;;;9.60;;
35290;SDS011;21411;50.024;19.220;2023-05-29T19:02:00;13.20;;;9.90;;
35290;SDS011;21411;50.024;19.220;2023-05-29T19:04:27;11.20;;;9.10;;
35290;SDS011;21411;50.024;19.220;2023-05-29T19:06:53;19.00;;;10.70;;
35290;SDS011;21411;50.024;19.220;2023-05-29T19:09:21;16.20;;;10.20;;
35290;SDS011;21411;50.024;19.220;2023-05-29T19:11:48;13.10;;;10.10;;
35290;SDS011;21411;50.024;19.220;2023-05-29T19:14:15;12.90;;;10.60;;
35290;SDS011;21411;50.024;19.220;2023-05-29T19:16:42;16.60;;;10.10;;
35290;SDS011;21411;50.024;19.220;2023-05-29T19:19:09;13.80;;;10.30;;
35290;SDS011;21411;50.024;19.220;2023-05-29T19:21:36;15.70;;;11.30;;
35290;SDS011;21411;50.024;19.220;2023-05-29T19:24:03;16.40;;;11.70;;
35290;SDS011;21411;50.024;19.220;2023-05-29T19:26:33;15.50;;;11.60;;
35290;SDS011;21411;50.024;19.220;2023-05-29T19:31:27;13.40;;;10.70;;
35290;SDS011;21411;50.024;19.220;2023-05-29T19:33:55;21.80;;;14.10;;
35290;SDS011;21411;50.024;19.220;2023-05-29T19:36:22;18.90;;;14.00;;
35290;SDS011;21411;50.024;19.220;2023-05-29T19:38:50;18.90;;;13.10;;
35290;SDS011;21411;50.024;19.220;2023-05-29T19:41:18;15.80;;;12.20;;